sensor_id;sensor_type;location;lat;lon;timestamp;pressure;altitude;pressure_sealevel;temperature;humidity
69535;BME280;56754;51.568;5.048;2023-05-09T00:01:36;101735.81;;;18.19;66.66
69535;BME280;56754;51.568;5.048;2023-05-09T00:04:02;101736.13;;;18.17;66.64
69535;BME280;56754;51.568;5.048;2023-05-09T00:06:27;101739.97;;;18.16;66.16
69535;BME280;56754;51.568;5.048;2023-05-09T00:08:53;101732.66;;;18.17;66.68
69535;BME280;56754;51.568;5.048;2023-05-09T00:11:19;101722.94;;;18.16;66.75
69535;BME280;56754;51.568;5.048;2023-05-09T00:13:45;101731.41;;;18.14;66.65
69535;BME280;56754;51.568;5.048;2023-05-09T00:16:10;101723.28;;;18.14;66.60
69535;BME280;56754;51.568;5.048;2023-05-09T00:18:36;101725.22;;;18.14;66.35
69535;BME280;56754;51.568;5.048;2023-05-09T00:21:02;101730.16;;;18.12;66.60
69535;BME280;56754;51.568;5.048;2023-05-09T00:23:27;101719.34;;;18.12;66.72
69535;BME280;56754;51.568;5.048;2023-05-09T00:25:52;101718.88;;;18.10;66.60
69535;BME280;56754;51.568;5.048;2023-05-09T00:28:18;101716.19;;;18.10;66.55
69535;BME280;56754;51.568;5.048;2023-05-09T00:30:43;101708.41;;;18.08;66.58
69535;BME280;56754;51.568;5.048;2023-05-09T00:33:08;101709.56;;;18.07;66.53
69535;BME280;56754;51.568;5.048;2023-05-09T00:35:34;101708.75;;;18.07;66.81
69535;BME280;56754;51.568;5.048;2023-05-09T00:37:59;101699.84;;;18.06;66.63
69535;BME280;56754;51.568;5.048;2023-05-09T00:40:24;101702.91;;;18.05;66.51
69535;BME280;56754;51.568;5.048;2023-05-09T00:42:50;101699.38;;;18.04;66.68
69535;BME280;56754;51.568;5.048;2023-05-09T00:45:15;101692.06;;;18.05;66.80
69535;BME280;56754;51.568;5.048;2023-05-09T00:47:40;101697.81;;;18.03;66.69
69535;BME280;56754;51.568;5.048;2023-05-09T00:50:06;101688.91;;;18.03;66.50
69535;BME280;56754;51.568;5.048;2023-05-09T00:52:32;101680.34;;;18.01;66.61
69535;BME280;56754;51.568;5.048;2023-05-09T00:54:59;101679.56;;;18.00;66.50
69535;BME280;56754;51.568;5.048;2023-05-09T00:57:24;101676.06;;;18.00;66.83
69535;BME280;56754;51.568;5.048;2023-05-09T00:59:50;101667.50;;;17.98;66.43
69535;BME280;56754;51.568;5.048;2023-05-09T01:02:16;101673.69;;;17.98;66.59
69535;BME280;56754;51.568;5.048;2023-05-09T01:04:42;101663.22;;;17.96;66.65
69535;BME280;56754;51.568;5.048;2023-05-09T01:20:45;101645.28;;;17.92;66.83
69535;BME280;56754;51.568;5.048;2023-05-09T01:23:56;101634.81;;;17.90;66.64
69535;BME280;56754;51.568;5.048;2023-05-09T01:29:36;101622.41;;;17.89;66.85
69535;BME280;56754;51.568;5.048;2023-05-09T01:32:07;101620.84;;;17.88;66.58
69535;BME280;56754;51.568;5.048;2023-05-09T01:34:34;101618.13;;;17.88;66.77
69535;BME280;56754;51.568;5.048;2023-05-09T01:37:03;101615.44;;;17.88;66.89
69535;BME280;56754;51.568;5.048;2023-05-09T01:39:32;101608.78;;;17.86;66.87
69535;BME280;56754;51.568;5.048;2023-05-09T01:42:01;101615.78;;;17.87;66.79
69535;BME280;56754;51.568;5.048;2023-05-09T01:44:31;101614.19;;;17.86;66.71
69535;BME280;56754;51.568;5.048;2023-05-09T01:46:58;101616.13;;;17.85;66.93
69535;BME280;56754;51.568;5.048;2023-05-09T01:49:27;101614.56;;;17.84;66.90
69535;BME280;56754;51.568;5.048;2023-05-09T01:51:54;101607.22;;;17.85;66.73
69535;BME280;56754;51.568;5.048;2023-05-09T01:54:21;101606.44;;;17.84;66.54
69535;BME280;56754;51.568;5.048;2023-05-09T01:56:48;101602.13;;;17.83;66.79
69535;BME280;56754;51.568;5.048;2023-05-09T01:59:14;101604.84;;;17.83;66.89
69535;BME280;56754;51.568;5.048;2023-05-09T02:01:42;101606.75;;;17.83;66.86
69535;BME280;56754;51.568;5.048;2023-05-09T02:04:07;101602.50;;;17.82;66.99
69535;BME280;56754;51.568;5.048;2023-05-09T02:06:33;101604.41;;;17.81;66.64
69535;BME280;56754;51.568;5.048;2023-05-09T02:09:00;101601.72;;;17.81;66.55
69535;BME280;56754;51.568;5.048;2023-05-09T02:11:25;101609.03;;;17.81;66.82
69535;BME280;56754;51.568;5.048;2023-05-09T02:13:51;101610.16;;;17.80;67.04
69535;BME280;56754;51.568;5.048;2023-05-09T02:16:16;101606.66;;;17.79;66.70
69535;BME280;56754;51.568;5.048;2023-05-09T02:18:41;101606.66;;;17.79;67.17
69535;BME280;56754;51.568;5.048;2023-05-09T02:21:07;101596.19;;;17.78;66.94
69535;BME280;56754;51.568;5.048;2023-05-09T02:23:32;101595.34;;;17.77;66.62
69535;BME280;56754;51.568;5.048;2023-05-09T02:25:58;101599.97;;;17.77;66.75
69535;BME280;56754;51.568;5.048;2023-05-09T02:28:26;101597.28;;;17.77;66.73
69535;BME280;56754;51.568;5.048;2023-05-09T02:30:52;101603.47;;;17.77;66.90
69535;BME280;56754;51.568;5.048;2023-05-09T02:33:19;101596.50;;;17.76;66.75
69535;BME280;56754;51.568;5.048;2023-05-09T02:35:45;101586.81;;;17.75;67.08
69535;BME280;56754;51.568;5.048;2023-05-09T02:38:12;101592.22;;;17.75;66.96
69535;BME280;56754;51.568;5.048;2023-05-09T02:40:38;101572.84;;;17.73;66.80
69535;BME280;56754;51.568;5.048;2023-05-09T02:43:06;101572.84;;;17.73;66.95
69535;BME280;56754;51.568;5.048;2023-05-09T02:45:31;101571.69;;;17.74;66.85
69535;BME280;56754;51.568;5.048;2023-05-09T02:47:57;101561.25;;;17.72;66.95
69535;BME280;56754;51.568;5.048;2023-05-09T02:50:22;101568.56;;;17.72;66.30
69535;BME280;56754;51.568;5.048;2023-05-09T02:52:48;101565.88;;;17.72;66.98
69535;BME280;56754;51.568;5.048;2023-05-09T02:55:13;101558.84;;;17.71;66.59
69535;BME280;56754;51.568;5.048;2023-05-09T02:57:38;101562.69;;;17.70;66.69
69535;BME280;56754;51.568;5.048;2023-05-09T03:00:04;101557.28;;;17.70;66.65
69535;BME280;56754;51.568;5.048;2023-05-09T03:02:30;101545.69;;;17.69;66.57
69535;BME280;56754;51.568;5.048;2023-05-09T03:04:55;101545.69;;;17.69;67.28
69535;BME280;56754;51.568;5.048;2023-05-09T03:07:20;101538.38;;;17.70;66.90
69535;BME280;56754;51.568;5.048;2023-05-09T03:09:46;101535.22;;;17.68;66.91
69535;BME280;56754;51.568;5.048;2023-05-09T03:12:11;101529.81;;;17.68;66.53
69535;BME280;56754;51.568;5.048;2023-05-09T03:14:36;101531.72;;;17.67;66.84
69535;BME280;56754;51.568;5.048;2023-05-09T03:17:01;101530.16;;;17.66;67.08
69535;BME280;56754;51.568;5.048;2023-05-09T03:19:27;101529.38;;;17.66;66.97
69535;BME280;56754;51.568;5.048;2023-05-09T03:21:52;101535.56;;;17.66;66.95
69535;BME280;56754;51.568;5.048;2023-05-09T03:24:18;101527.44;;;17.66;66.98
69535;BME280;56754;51.568;5.048;2023-05-09T03:26:43;101529.69;;;17.64;67.07
69535;BME280;56754;51.568;5.048;2023-05-09T03:29:08;101525.84;;;17.65;67.28
69535;BME280;56754;51.568;5.048;2023-05-09T03:31:33;101520.81;;;17.64;67.39
69535;BME280;56754;51.568;5.048;2023-05-09T03:33:59;101517.31;;;17.63;66.39
69535;BME280;56754;51.568;5.048;2023-05-09T03:36:24;101526.22;;;17.64;67.31
69535;BME280;56754;51.568;5.048;2023-05-09T03:38:50;101519.22;;;17.63;67.03
69535;BME280;56754;51.568;5.048;2023-05-09T03:41:16;101520.03;;;17.63;67.07
69535;BME280;56754;51.568;5.048;2023-05-09T03:43:42;101507.63;;;17.62;67.05
69535;BME280;56754;51.568;5.048;2023-05-09T03:46:07;101506.84;;;17.62;67.09
69535;BME280;56754;51.568;5.048;2023-05-09T03:48:33;101501.44;;;17.62;67.07
69535;BME280;56754;51.568;5.048;2023-05-09T03:50:58;101502.56;;;17.61;67.08
69535;BME280;56754;51.568;5.048;2023-05-09T03:53:24;101504.47;;;17.60;67.07
69535;BME280;56754;51.568;5.048;2023-05-09T03:55:49;101500.97;;;17.60;67.13
69535;BME280;56754;51.568;5.048;2023-05-09T03:58:14;101497.50;;;17.59;67.25
69535;BME280;56754;51.568;5.048;2023-05-09T04:00:40;101495.56;;;17.60;66.93
69535;BME280;56754;51.568;5.048;2023-05-09T04:03:06;101491.28;;;17.59;66.68
69535;BME280;56754;51.568;5.048;2023-05-09T04:05:31;101495.91;;;17.58;67.07
69535;BME280;56754;51.568;5.048;2023-05-09T04:07:57;101496.69;;;17.59;67.19
69535;BME280;56754;51.568;5.048;2023-05-09T04:10:22;101487.81;;;17.58;67.12
69535;BME280;56754;51.568;5.048;2023-05-09T04:12:47;101485.09;;;17.58;67.15
69535;BME280;56754;51.568;5.048;2023-05-09T04:15:13;101495.13;;;17.58;67.36
69535;BME280;56754;51.568;5.048;2023-05-09T04:17:38;101490.06;;;17.56;67.16
69535;BME280;56754;51.568;5.048;2023-05-09T04:20:04;101492.75;;;17.56;67.07
69535;BME280;56754;51.568;5.048;2023-05-09T04:22:29;101482.72;;;17.57;67.21
69535;BME280;56754;51.568;5.048;2023-05-09T04:24:55;101481.94;;;17.56;67.37
69535;BME280;56754;51.568;5.048;2023-05-09T04:27:20;101484.66;;;17.56;67.31
69535;BME280;56754;51.568;5.048;2023-05-09T04:29:45;101468.44;;;17.56;67.08
69535;BME280;56754;51.568;5.048;2023-05-09T04:32:10;101470.34;;;17.56;67.28
69535;BME280;56754;51.568;5.048;2023-05-09T04:34:36;101463.03;;;17.56;67.16
69535;BME280;56754;51.568;5.048;2023-05-09T04:37:01;101461.09;;;17.57;67.22
69535;BME280;56754;51.568;5.048;2023-05-09T04:39:26;101468.44;;;17.56;67.53
69535;BME280;56754;51.568;5.048;2023-05-09T04:41:52;101460.31;;;17.56;67.25
69535;BME280;56754;51.568;5.048;2023-05-09T04:44:17;101464.94;;;17.56;67.64
69535;BME280;56754;51.568;5.048;2023-05-09T04:46:42;101467.66;;;17.56;67.46
69535;BME280;56754;51.568;5.048;2023-05-09T04:49:08;101462.69;;;17.58;67.28
69535;BME280;56754;51.568;5.048;2023-05-09T04:51:33;101463.13;;;17.60;67.33
69535;BME280;56754;51.568;5.048;2023-05-09T04:53:59;101445.34;;;17.59;67.34
69535;BME280;56754;51.568;5.048;2023-05-09T04:56:24;101438.03;;;17.59;67.32
69535;BME280;56754;51.568;5.048;2023-05-09T04:58:49;101431.16;;;17.62;67.38
69535;BME280;56754;51.568;5.048;2023-05-09T05:01:15;101443.53;;;17.63;67.09
69535;BME280;56754;51.568;5.048;2023-05-09T05:03:40;101438.13;;;17.63;66.89
69535;BME280;56754;51.568;5.048;2023-05-09T05:06:05;101434.63;;;17.62;67.18
69535;BME280;56754;51.568;5.048;2023-05-09T05:08:31;101433.16;;;17.65;67.25
69535;BME280;56754;51.568;5.048;2023-05-09T05:10:56;101427.75;;;17.65;67.06
69535;BME280;56754;51.568;5.048;2023-05-09T05:13:22;101433.63;;;17.67;66.96
69535;BME280;56754;51.568;5.048;2023-05-09T05:15:47;101421.66;;;17.68;66.91
69535;BME280;56754;51.568;5.048;2023-05-09T05:18:12;101412.44;;;17.69;66.83
69535;BME280;56754;51.568;5.048;2023-05-09T05:20:41;101416.72;;;17.70;66.74
69535;BME280;56754;51.568;5.048;2023-05-09T05:23:07;101412.53;;;17.72;66.52
69535;BME280;56754;51.568;5.048;2023-05-09T05:25:32;101406.78;;;17.74;66.40
69535;BME280;56754;51.568;5.048;2023-05-09T05:27:57;101404.53;;;17.76;66.31
69535;BME280;56754;51.568;5.048;2023-05-09T05:30:23;101410.72;;;17.77;66.33
69535;BME280;56754;51.568;5.048;2023-05-09T05:32:48;101401.53;;;17.78;66.29
69535;BME280;56754;51.568;5.048;2023-05-09T05:35:13;101399.59;;;17.78;66.00
69535;BME280;56754;51.568;5.048;2023-05-09T05:37:40;101410.06;;;17.80;65.95
69535;BME280;56754;51.568;5.048;2023-05-09T05:40:06;101404.66;;;17.80;65.81
69535;BME280;56754;51.568;5.048;2023-05-09T05:42:32;101400.84;;;17.81;65.77
69535;BME280;56754;51.568;5.048;2023-05-09T05:44:57;101398.13;;;17.81;65.71
69535;BME280;56754;51.568;5.048;2023-05-09T05:47:23;101402.41;;;17.82;65.58
69535;BME280;56754;51.568;5.048;2023-05-09T05:49:48;101402.03;;;17.83;65.49
69535;BME280;56754;51.568;5.048;2023-05-09T05:52:13;101399.34;;;17.83;65.38
69535;BME280;56754;51.568;5.048;2023-05-09T05:54:39;101392.03;;;17.84;65.42
69535;BME280;56754;51.568;5.048;2023-05-09T05:57:04;101395.50;;;17.84;65.26
69535;BME280;56754;51.568;5.048;2023-05-09T05:59:30;101390.88;;;17.85;65.64
69535;BME280;56754;51.568;5.048;2023-05-09T06:01:55;101388.97;;;17.85;65.38
69535;BME280;56754;51.568;5.048;2023-05-09T06:04:20;101383.56;;;17.85;65.57
69535;BME280;56754;51.568;5.048;2023-05-09T06:06:46;101377.81;;;17.87;65.19
69535;BME280;56754;51.568;5.048;2023-05-09T06:09:11;101380.16;;;17.88;65.28
69535;BME280;56754;51.568;5.048;2023-05-09T06:11:36;101377.47;;;17.88;65.29
69535;BME280;56754;51.568;5.048;2023-05-09T06:14:02;101376.69;;;17.88;65.50
69535;BME280;56754;51.568;5.048;2023-05-09T06:16:27;101381.72;;;17.89;65.10
69535;BME280;56754;51.568;5.048;2023-05-09T06:18:52;101377.91;;;17.90;65.10
69535;BME280;56754;51.568;5.048;2023-05-09T06:21:18;101367.88;;;17.91;65.12
69535;BME280;56754;51.568;5.048;2023-05-09T06:23:43;101378.69;;;17.91;64.75
69535;BME280;56754;51.568;5.048;2023-05-09T06:26:08;101378.69;;;17.91;64.74
69535;BME280;56754;51.568;5.048;2023-05-09T06:28:34;101375.66;;;17.92;64.48
69535;BME280;56754;51.568;5.048;2023-05-09T06:30:59;101367.53;;;17.92;64.54
69535;BME280;56754;51.568;5.048;2023-05-09T06:33:24;101368.31;;;17.93;65.09
69535;BME280;56754;51.568;5.048;2023-05-09T06:35:49;101369.09;;;17.93;64.93
69535;BME280;56754;51.568;5.048;2023-05-09T06:38:15;101371.81;;;17.93;64.82
69535;BME280;56754;51.568;5.048;2023-05-09T06:40:40;101361.78;;;17.94;65.23
69535;BME280;56754;51.568;5.048;2023-05-09T06:43:05;101369.56;;;17.95;65.26
69535;BME280;56754;51.568;5.048;2023-05-09T06:45:31;101362.56;;;17.94;64.58
69535;BME280;56754;51.568;5.048;2023-05-09T06:47:56;101359.84;;;17.94;64.82
69535;BME280;56754;51.568;5.048;2023-05-09T06:50:22;101359.84;;;17.94;65.36
69535;BME280;56754;51.568;5.048;2023-05-09T06:52:47;101350.19;;;17.93;64.89
69535;BME280;56754;51.568;5.048;2023-05-09T06:55:12;101355.59;;;17.93;65.17
69535;BME280;56754;51.568;5.048;2023-05-09T06:57:38;101351.72;;;17.94;65.27
69535;BME280;56754;51.568;5.048;2023-05-09T07:00:04;101353.66;;;17.94;65.36
69535;BME280;56754;51.568;5.048;2023-05-09T07:02:29;101351.72;;;17.94;65.27
69535;BME280;56754;51.568;5.048;2023-05-09T07:04:54;101347.91;;;17.95;65.30
69535;BME280;56754;51.568;5.048;2023-05-09T07:07:20;101343.63;;;17.94;65.32
69535;BME280;56754;51.568;5.048;2023-05-09T07:09:45;101348.25;;;17.94;65.58
69535;BME280;56754;51.568;5.048;2023-05-09T07:12:10;101340.13;;;17.94;65.64
69535;BME280;56754;51.568;5.048;2023-05-09T07:14:36;101338.22;;;17.94;65.56
69535;BME280;56754;51.568;5.048;2023-05-09T07:17:01;101334.72;;;17.94;65.64
69535;BME280;56754;51.568;5.048;2023-05-09T07:19:26;101332.38;;;17.92;65.42
69535;BME280;56754;51.568;5.048;2023-05-09T07:21:52;101326.97;;;17.92;64.88
69535;BME280;56754;51.568;5.048;2023-05-09T07:24:17;101325.38;;;17.91;64.96
69535;BME280;56754;51.568;5.048;2023-05-09T07:26:42;101316.16;;;17.92;65.18
69535;BME280;56754;51.568;5.048;2023-05-09T07:29:08;101320.75;;;17.92;65.15
69535;BME280;56754;51.568;5.048;2023-05-09T07:31:33;101325.38;;;17.91;65.51
69535;BME280;56754;51.568;5.048;2023-05-09T07:33:58;101316.16;;;17.92;65.58
69535;BME280;56754;51.568;5.048;2023-05-09T07:36:24;101306.81;;;17.90;65.83
69535;BME280;56754;51.568;5.048;2023-05-09T07:38:49;101319.97;;;17.91;65.69
69535;BME280;56754;51.568;5.048;2023-05-09T07:41:14;101316.50;;;17.91;65.99
69535;BME280;56754;51.568;5.048;2023-05-09T07:43:40;101304.13;;;17.90;65.98
69535;BME280;56754;51.568;5.048;2023-05-09T07:46:05;101310.63;;;17.89;65.87
69535;BME280;56754;51.568;5.048;2023-05-09T07:48:30;101303.66;;;17.88;66.18
69535;BME280;56754;51.568;5.048;2023-05-09T07:50:56;101294.41;;;17.89;65.97
69535;BME280;56754;51.568;5.048;2023-05-09T07:53:22;101293.63;;;17.88;65.97
69535;BME280;56754;51.568;5.048;2023-05-09T07:55:48;101291.72;;;17.89;66.33
69535;BME280;56754;51.568;5.048;2023-05-09T07:58:13;101292.06;;;17.87;66.21
69535;BME280;56754;51.568;5.048;2023-05-09T08:00:39;101282.03;;;17.88;66.40
69535;BME280;56754;51.568;5.048;2023-05-09T08:03:04;101277.41;;;17.88;66.42
69535;BME280;56754;51.568;5.048;2023-05-09T08:05:30;101280.09;;;17.88;66.36
69535;BME280;56754;51.568;5.048;2023-05-09T08:07:55;101276.63;;;17.88;66.39
69535;BME280;56754;51.568;5.048;2023-05-09T08:10:21;101272.00;;;17.88;66.45
69535;BME280;56754;51.568;5.048;2023-05-09T08:12:47;101264.66;;;17.89;66.30
69535;BME280;56754;51.568;5.048;2023-05-09T08:15:12;101267.72;;;17.87;66.49
69535;BME280;56754;51.568;5.048;2023-05-09T08:17:37;101257.69;;;17.88;66.63
69535;BME280;56754;51.568;5.048;2023-05-09T08:20:03;101265.03;;;17.87;66.60
69535;BME280;56754;51.568;5.048;2023-05-09T08:22:28;101255.00;;;17.88;67.04
69535;BME280;56754;51.568;5.048;2023-05-09T08:24:53;101248.81;;;17.87;67.00
69535;BME280;56754;51.568;5.048;2023-05-09T08:27:19;101248.81;;;17.87;67.21
69535;BME280;56754;51.568;5.048;2023-05-09T08:29:44;101239.09;;;17.86;67.18
69535;BME280;56754;51.568;5.048;2023-05-09T08:32:09;101239.47;;;17.85;67.54
69535;BME280;56754;51.568;5.048;2023-05-09T08:34:35;101236.75;;;17.85;67.59
69535;BME280;56754;51.568;5.048;2023-05-09T08:37:01;101234.06;;;17.85;67.61
69535;BME280;56754;51.568;5.048;2023-05-09T08:39:27;101234.84;;;17.85;67.66
69535;BME280;56754;51.568;5.048;2023-05-09T08:42:00;101230.91;;;17.83;67.78
69535;BME280;56754;51.568;5.048;2023-05-09T08:44:27;101228.97;;;17.83;67.80
69535;BME280;56754;51.568;5.048;2023-05-09T08:46:57;101230.56;;;17.84;67.81
69535;BME280;56754;51.568;5.048;2023-05-09T08:49:23;101228.66;;;17.85;67.79
69535;BME280;56754;51.568;5.048;2023-05-09T08:51:48;101224.81;;;17.86;68.10
69535;BME280;56754;51.568;5.048;2023-05-09T08:54:15;101224.47;;;17.87;67.90
69535;BME280;56754;51.568;5.048;2023-05-09T08:56:40;101217.91;;;17.88;67.92
69535;BME280;56754;51.568;5.048;2023-05-09T08:59:06;101219.84;;;17.88;67.80
69535;BME280;56754;51.568;5.048;2023-05-09T09:01:33;101216.78;;;17.89;67.91
69535;BME280;56754;51.568;5.048;2023-05-09T09:03:59;101209.47;;;17.90;67.87
69535;BME280;56754;51.568;5.048;2023-05-09T09:06:25;101212.16;;;17.90;67.76
69535;BME280;56754;51.568;5.048;2023-05-09T09:08:53;101211.38;;;17.89;67.83
69535;BME280;56754;51.568;5.048;2023-05-09T09:11:19;101207.53;;;17.90;68.00
69535;BME280;56754;51.568;5.048;2023-05-09T09:13:45;101210.25;;;17.90;67.86
69535;BME280;56754;51.568;5.048;2023-05-09T09:16:17;101202.56;;;17.92;67.87
69535;BME280;56754;51.568;5.048;2023-05-09T09:18:43;101194.81;;;17.91;67.65
69535;BME280;56754;51.568;5.048;2023-05-09T09:21:11;101202.56;;;17.92;67.78
69535;BME280;56754;51.568;5.048;2023-05-09T09:23:38;101196.81;;;17.94;67.78
69535;BME280;56754;51.568;5.048;2023-05-09T09:26:05;101199.50;;;17.94;67.80
69535;BME280;56754;51.568;5.048;2023-05-09T09:28:32;101200.28;;;17.94;67.86
69535;BME280;56754;51.568;5.048;2023-05-09T09:30:57;101191.06;;;17.95;67.72
69535;BME280;56754;51.568;5.048;2023-05-09T09:33:24;101188.34;;;17.95;67.65
69535;BME280;56754;51.568;5.048;2023-05-09T09:35:52;101179.53;;;17.99;67.65
69535;BME280;56754;51.568;5.048;2023-05-09T09:38:19;101188.78;;;17.98;67.95
69535;BME280;56754;51.568;5.048;2023-05-09T09:41:02;101183.03;;;17.99;67.92
69535;BME280;56754;51.568;5.048;2023-05-09T09:43:28;101188.06;;;18.01;67.80
69535;BME280;56754;51.568;5.048;2023-05-09T09:45:54;101178.03;;;18.01;67.52
69535;BME280;56754;51.568;5.048;2023-05-09T09:48:30;101183.44;;;18.01;67.71
69535;BME280;56754;51.568;5.048;2023-05-09T09:50:55;101179.19;;;18.00;67.76
69535;BME280;56754;51.568;5.048;2023-05-09T09:53:20;101181.88;;;18.00;67.56
69535;BME280;56754;51.568;5.048;2023-05-09T09:55:50;101177.25;;;18.01;67.75
69535;BME280;56754;51.568;5.048;2023-05-09T09:58:16;101174.53;;;18.01;67.78
69535;BME280;56754;51.568;5.048;2023-05-09T10:00:42;101175.69;;;18.00;67.62
69535;BME280;56754;51.568;5.048;2023-05-09T10:03:13;101167.91;;;17.98;67.92
69535;BME280;56754;51.568;5.048;2023-05-09T10:05:38;101174.13;;;17.99;67.80
69535;BME280;56754;51.568;5.048;2023-05-09T10:08:04;101178.41;;;18.00;68.04
69535;BME280;56754;51.568;5.048;2023-05-09T10:10:31;101176.47;;;18.00;68.00
69535;BME280;56754;51.568;5.048;2023-05-09T10:12:59;101179.19;;;18.00;68.12
69535;BME280;56754;51.568;5.048;2023-05-09T10:15:25;101165.66;;;18.00;68.01
69535;BME280;56754;51.568;5.048;2023-05-09T10:17:55;101168.34;;;18.00;67.91
69535;BME280;56754;51.568;5.048;2023-05-09T10:20:21;101155.97;;;17.99;68.20
69535;BME280;56754;51.568;5.048;2023-05-09T10:22:48;101154.06;;;18.00;67.83
69535;BME280;56754;51.568;5.048;2023-05-09T10:25:21;101147.09;;;17.99;67.94
69535;BME280;56754;51.568;5.048;2023-05-09T10:27:53;101151.69;;;17.98;67.79
69535;BME280;56754;51.568;5.048;2023-05-09T10:30:27;101154.38;;;17.98;68.11
69535;BME280;56754;51.568;5.048;2023-05-09T10:33:07;101143.94;;;17.96;68.13
69535;BME280;56754;51.568;5.048;2023-05-09T10:35:36;101150.91;;;17.98;67.94
69535;BME280;56754;51.568;5.048;2023-05-09T10:38:05;101142.00;;;17.97;68.14
69535;BME280;56754;51.568;5.048;2023-05-09T10:40:31;101137.38;;;17.98;68.13
69535;BME280;56754;51.568;5.048;2023-05-09T10:42:58;101134.69;;;17.98;68.05
69535;BME280;56754;51.568;5.048;2023-05-09T10:45:23;101141.69;;;17.99;68.08
69535;BME280;56754;51.568;5.048;2023-05-09T10:47:50;101129.72;;;18.00;68.15
69535;BME280;56754;51.568;5.048;2023-05-09T10:50:16;101127.78;;;18.00;68.17
69535;BME280;56754;51.568;5.048;2023-05-09T10:55:54;101121.59;;;18.00;68.23
69535;BME280;56754;51.568;5.048;2023-05-09T10:58:27;101115.03;;;18.01;68.03
69535;BME280;56754;51.568;5.048;2023-05-09T11:00:57;101120.44;;;18.01;68.01
69535;BME280;56754;51.568;5.048;2023-05-09T11:03:24;101117.75;;;18.01;68.04
69535;BME280;56754;51.568;5.048;2023-05-09T11:05:52;101117.75;;;18.01;67.97
69535;BME280;56754;51.568;5.048;2023-05-09T11:10:48;101106.59;;;18.02;68.00
69535;BME280;56754;51.568;5.048;2023-05-09T11:13:18;101098.03;;;18.00;68.11
69535;BME280;56754;51.568;5.048;2023-05-09T11:18:23;101107.72;;;18.01;68.14
69535;BME280;56754;51.568;5.048;2023-05-09T11:20:50;101096.88;;;18.01;68.20
69535;BME280;56754;51.568;5.048;2023-05-09T11:23:19;101094.19;;;18.01;68.15
69535;BME280;56754;51.568;5.048;2023-05-09T11:25:45;101093.06;;;18.02;68.07
69535;BME280;56754;51.568;5.048;2023-05-09T11:28:25;101094.63;;;18.03;68.05
69535;BME280;56754;51.568;5.048;2023-05-09T11:30:50;101093.06;;;18.02;68.08
69535;BME280;56754;51.568;5.048;2023-05-09T11:33:28;101084.59;;;18.04;68.15
69535;BME280;56754;51.568;5.048;2023-05-09T11:36:23;101090.00;;;18.04;68.27
69535;BME280;56754;51.568;5.048;2023-05-09T11:39:06;101081.09;;;18.03;68.19
69535;BME280;56754;51.568;5.048;2023-05-09T11:41:51;101084.25;;;18.05;67.92
69535;BME280;56754;51.568;5.048;2023-05-09T11:44:19;101067.25;;;18.05;68.16
69535;BME280;56754;51.568;5.048;2023-05-09T11:46:46;101075.00;;;18.06;68.03
69535;BME280;56754;51.568;5.048;2023-05-09T11:49:12;101078.47;;;18.07;68.15
69535;BME280;56754;51.568;5.048;2023-05-09T11:51:38;101070.78;;;18.09;68.19
69535;BME280;56754;51.568;5.048;2023-05-09T11:54:05;101060.41;;;18.11;68.13
69535;BME280;56754;51.568;5.048;2023-05-09T11:56:30;101065.44;;;18.12;67.84
69535;BME280;56754;51.568;5.048;2023-05-09T11:58:57;101070.88;;;18.12;68.06
69535;BME280;56754;51.568;5.048;2023-05-09T12:01:22;101057.34;;;18.12;67.92
69535;BME280;56754;51.568;5.048;2023-05-09T12:03:48;101052.72;;;18.13;67.92
69535;BME280;56754;51.568;5.048;2023-05-09T12:06:18;101040.78;;;18.14;67.96
69535;BME280;56754;51.568;5.048;2023-05-09T12:08:44;101043.09;;;18.15;67.79
69535;BME280;56754;51.568;5.048;2023-05-09T12:11:10;101043.47;;;18.14;67.73
69535;BME280;56754;51.568;5.048;2023-05-09T12:13:44;101046.97;;;18.14;67.89
69535;BME280;56754;51.568;5.048;2023-05-09T12:16:09;101046.19;;;18.14;67.78
69535;BME280;56754;51.568;5.048;2023-05-09T12:18:34;101051.59;;;18.14;67.86
69535;BME280;56754;51.568;5.048;2023-05-09T12:21:00;101040.78;;;18.14;67.82
69535;BME280;56754;51.568;5.048;2023-05-09T12:23:25;101044.25;;;18.14;68.06
69535;BME280;56754;51.568;5.048;2023-05-09T12:25:55;101039.63;;;18.15;68.01
69535;BME280;56754;51.568;5.048;2023-05-09T12:28:24;101040.78;;;18.14;67.78
69535;BME280;56754;51.568;5.048;2023-05-09T12:30:51;101036.13;;;18.14;67.91
69535;BME280;56754;51.568;5.048;2023-05-09T12:33:17;101033.78;;;18.13;67.80
69535;BME280;56754;51.568;5.048;2023-05-09T12:35:46;101021.75;;;18.10;67.94
69535;BME280;56754;51.568;5.048;2023-05-09T12:38:20;101027.50;;;18.09;68.14
69535;BME280;56754;51.568;5.048;2023-05-09T12:40:59;101024.81;;;18.09;67.85
69535;BME280;56754;51.568;5.048;2023-05-09T12:43:25;101022.47;;;18.07;67.93
69535;BME280;56754;51.568;5.048;2023-05-09T12:45:51;101021.66;;;18.07;68.16
69535;BME280;56754;51.568;5.048;2023-05-09T12:48:17;101019.34;;;18.05;68.00
69535;BME280;56754;51.568;5.048;2023-05-09T12:50:45;101014.69;;;18.06;68.10
69535;BME280;56754;51.568;5.048;2023-05-09T12:53:11;101016.25;;;18.07;68.26
69535;BME280;56754;51.568;5.048;2023-05-09T12:55:39;101013.56;;;18.07;68.20
69535;BME280;56754;51.568;5.048;2023-05-09T12:58:04;101008.16;;;18.07;68.28
69535;BME280;56754;51.568;5.048;2023-05-09T13:00:43;101015.13;;;18.08;68.07
69535;BME280;56754;51.568;5.048;2023-05-09T13:03:25;101001.19;;;18.06;68.19
69535;BME280;56754;51.568;5.048;2023-05-09T13:06:01;101007.75;;;18.05;68.04
69535;BME280;56754;51.568;5.048;2023-05-09T13:08:28;100999.97;;;18.03;68.13
69535;BME280;56754;51.568;5.048;2023-05-09T13:10:54;101004.59;;;18.03;68.13
69535;BME280;56754;51.568;5.048;2023-05-09T13:13:19;101001.91;;;18.03;68.30